createdAt,value
2022-09-26T00:01:43.214Z,70.85
2022-09-26T00:04:23.704Z,70.39
2022-09-26T00:06:56.124Z,68.97
2022-09-26T00:09:27.212Z,68.07
2022-09-26T00:11:55.765Z,68.32
2022-09-26T00:14:28.937Z,68.78
2022-09-26T00:16:58.022Z,68.61
2022-09-26T00:19:26.548Z,69.76
2022-09-26T00:21:55.573Z,69.21
2022-09-26T00:24:24.300Z,68.93
2022-09-26T00:26:52.718Z,69.36
2022-09-26T00:29:21.036Z,69.46
2022-09-26T00:31:49.457Z,68.88
2022-09-26T00:34:19.855Z,69.84
2022-09-26T00:36:50.114Z,72.82
2022-09-26T00:39:18.743Z,73.03
2022-09-26T00:41:47.369Z,71.23
2022-09-26T00:44:54.789Z,70.33
2022-09-26T00:47:45.001Z,70.57
2022-09-26T00:50:26.789Z,70.54
2022-09-26T00:53:05.041Z,70.50
2022-09-26T00:55:39.079Z,70.33
2022-09-26T00:58:14.931Z,70.50
2022-09-26T01:00:47.394Z,70.51
2022-09-26T01:03:17.395Z,70.25
2022-09-26T01:05:47.140Z,70.38
2022-09-26T01:08:22.125Z,70.29
2022-09-26T01:10:50.681Z,70.69
2022-09-26T01:13:21.114Z,71.22
2022-09-26T01:15:49.637Z,71.44
2022-09-26T01:18:18.962Z,71.99
2022-09-26T01:22:03.145Z,72.32
2022-09-26T01:25:01.171Z,73.91
2022-09-26T01:27:55.887Z,74.52
2022-09-26T01:30:27.010Z,72.75
2022-09-26T01:33:03.373Z,75.41
2022-09-26T01:36:28.894Z,74.87
2022-09-26T01:39:41.750Z,73.33
2022-09-26T01:42:47.217Z,73.30
2022-09-26T01:45:27.480Z,73.20
2022-09-26T01:48:11.257Z,74.02
2022-09-26T01:51:33.591Z,73.25
2022-09-26T01:54:14.218Z,74.14
2022-09-26T01:56:44.460Z,76.08
2022-09-26T01:59:30.634Z,76.96
2022-09-26T02:02:10.034Z,77.06
2022-09-26T02:04:44.749Z,77.66
2022-09-26T02:07:19.391Z,75.32
2022-09-26T02:09:58.447Z,74.32
2022-09-26T02:12:36.833Z,74.31
2022-09-26T02:15:11.832Z,75.39
2022-09-26T02:17:46.894Z,78.25
2022-09-26T02:20:23.846Z,79.26
2022-09-26T02:22:52.868Z,78.86
2022-09-26T02:25:21.388Z,78.03
2022-09-26T02:27:50.513Z,77.76
2022-09-26T02:30:19.139Z,79.63
2022-09-26T02:32:48.965Z,77.96
2022-09-26T02:35:36.542Z,75.87
2022-09-26T02:38:06.891Z,77.92
2022-09-26T02:41:02.398Z,80.26
2022-09-26T02:44:38.052Z,79.93
2022-09-26T02:47:33.873Z,78.35
2022-09-26T02:50:38.120Z,79.57
2022-09-26T02:53:21.791Z,80.71
2022-09-26T02:56:28.762Z,81.26
2022-09-26T02:59:03.079Z,81.13
2022-09-26T03:02:09.960Z,81.12
2022-09-26T03:04:52.396Z,81.18
2022-09-26T03:07:37.565Z,80.31
2022-09-26T03:10:09.429Z,80.47
2022-09-26T03:12:40.007Z,79.55
2022-09-26T03:15:12.302Z,79.69
2022-09-26T03:17:50.452Z,80.54
2022-09-26T03:20:21.852Z,81.06
2022-09-26T03:22:51.853Z,81.48
2022-09-26T03:25:27.653Z,81.77
2022-09-26T03:28:07.228Z,82.32
2022-09-26T03:30:35.853Z,81.76
2022-09-26T03:33:49.427Z,81.88
2022-09-26T03:36:18.603Z,82.08
2022-09-26T03:38:47.165Z,81.89
2022-09-26T03:41:59.339Z,81.82
2022-09-26T03:44:30.376Z,81.76
2022-09-26T03:47:07.826Z,88.63
2022-09-26T03:49:40.676Z,86.36
2022-09-26T03:52:12.069Z,82.99
2022-09-26T03:54:41.017Z,81.69
2022-09-26T03:57:12.897Z,81.57
2022-09-26T03:59:46.357Z,81.81
2022-09-26T04:02:16.848Z,81.59
2022-09-26T04:04:45.845Z,81.30
2022-09-26T04:07:16.277Z,80.63
2022-09-26T04:09:44.637Z,80.47
2022-09-26T04:12:13.258Z,80.01
2022-09-26T04:14:43.743Z,80.64
2022-09-26T04:17:13.001Z,80.65
2022-09-26T04:19:44.505Z,80.51
2022-09-26T04:22:13.119Z,81.32
2022-09-26T04:24:41.953Z,80.77
2022-09-26T04:27:10.567Z,80.74
2022-09-26T04:29:39.186Z,80.80
2022-09-26T04:32:13.407Z,81.08
2022-09-26T04:34:52.290Z,79.25
2022-09-26T04:37:21.512Z,78.83
2022-09-26T04:39:50.036Z,79.05
2022-09-26T04:42:18.715Z,79.16
2022-09-26T04:44:48.392Z,80.66
2022-09-26T04:47:18.015Z,81.04
2022-09-26T04:50:06.592Z,81.23
2022-09-26T04:52:35.124Z,81.41
2022-09-26T04:55:04.143Z,81.29
2022-09-26T04:57:32.967Z,80.66
2022-09-26T05:00:02.159Z,81.10
2022-09-26T05:02:31.377Z,81.10
2022-09-26T05:05:00.445Z,81.08
2022-09-26T05:07:29.662Z,81.12
2022-09-26T05:09:58.091Z,80.74
2022-09-26T05:12:28.525Z,80.32
2022-09-26T05:14:56.922Z,79.93
2022-09-26T05:17:25.461Z,80.09
2022-09-26T05:19:53.972Z,79.76
2022-09-26T05:22:32.175Z,79.70
2022-09-26T05:25:19.124Z,79.10
2022-09-26T05:27:49.247Z,77.72
2022-09-26T05:30:17.674Z,77.53
2022-09-26T05:32:48.704Z,78.37
2022-09-26T05:35:17.923Z,78.55
2022-09-26T05:37:46.444Z,78.34
2022-09-26T05:40:33.680Z,77.89
2022-09-26T05:43:03.770Z,77.79
2022-09-26T05:45:32.989Z,77.43
2022-09-26T05:48:03.317Z,76.93
2022-09-26T05:50:33.444Z,76.20
2022-09-26T05:53:02.970Z,75.63
2022-09-26T05:55:32.270Z,75.48
2022-09-26T05:58:56.413Z,75.38
2022-09-26T06:01:43.422Z,74.15
2022-09-26T06:04:18.241Z,72.21
2022-09-26T06:07:03.421Z,71.77
2022-09-26T06:09:31.945Z,71.69
2022-09-26T06:12:19.834Z,71.06
2022-09-26T06:14:48.508Z,69.02
2022-09-26T06:17:16.872Z,68.11
2022-09-26T06:19:45.503Z,68.94
2022-09-26T06:22:14.017Z,69.08
2022-09-26T06:24:42.538Z,67.63
2022-09-26T06:27:13.368Z,67.49
2022-09-26T06:29:41.789Z,67.05
2022-09-26T06:32:10.384Z,66.57
2022-09-26T06:35:14.170Z,65.68
2022-09-26T06:37:46.691Z,64.86
2022-09-26T06:40:15.743Z,63.41
2022-09-26T06:42:45.521Z,64.26
2022-09-26T06:45:28.423Z,63.90
2022-09-26T06:48:12.198Z,63.41
2022-09-26T06:51:04.434Z,60.91
2022-09-26T06:53:35.203Z,59.89
2022-09-26T06:56:04.634Z,59.64
2022-09-26T06:58:34.343Z,59.04
2022-09-26T07:01:06.899Z,59.45
2022-09-26T07:03:54.462Z,59.68
2022-09-26T07:06:42.849Z,60.41
2022-09-26T07:09:12.424Z,60.29
2022-09-26T07:12:13.957Z,59.56
2022-09-26T07:14:38.565Z,57.69
2022-09-26T07:17:19.732Z,57.56
2022-09-26T07:20:12.239Z,56.41
2022-09-26T07:23:06.754Z,55.84
2022-09-26T07:25:39.703Z,57.03
2022-09-26T07:28:09.900Z,56.49
2022-09-26T07:30:57.274Z,55.85
2022-09-26T07:33:40.409Z,56.41
2022-09-26T07:36:11.631Z,56.78
2022-09-26T07:38:40.443Z,55.62
2022-09-26T07:41:11.466Z,54.56
2022-09-26T07:44:34.726Z,54.56
2022-09-26T07:46:50.386Z,54.67
2022-09-26T07:49:37.361Z,54.43
2022-09-26T07:53:04.813Z,53.61
2022-09-26T07:55:33.188Z,52.40
2022-09-26T07:58:19.973Z,52.32
2022-09-26T08:01:38.376Z,52.99
2022-09-26T08:04:25.714Z,52.80
2022-09-26T08:06:56.576Z,52.87
2022-09-26T08:09:25.447Z,52.45
2022-09-26T08:12:50.120Z,51.09
2022-09-26T08:15:42.479Z,51.80
2022-09-26T08:18:16.377Z,50.55
2022-09-26T08:20:48.204Z,50.89
2022-09-26T08:23:18.050Z,49.86
2022-09-26T08:25:53.505Z,48.83
2022-09-26T08:29:12.696Z,49.02
2022-09-26T08:31:42.179Z,49.30
2022-09-26T08:34:10.799Z,47.94
2022-09-26T08:36:39.400Z,45.51
2022-09-26T08:39:11.289Z,46.93
2022-09-26T08:42:10.121Z,47.33
2022-09-26T08:44:54.639Z,44.88
2022-09-26T08:47:55.381Z,44.33
2022-09-26T08:51:35.539Z,45.41
2022-09-26T08:54:34.568Z,44.65
2022-09-26T08:57:28.242Z,44.72
2022-09-26T08:59:56.900Z,45.48
2022-09-26T09:02:42.116Z,46.57
2022-09-26T09:05:27.228Z,43.89
2022-09-26T09:07:58.968Z,44.08
2022-09-26T09:10:52.170Z,43.49
2022-09-26T09:14:00.521Z,43.36
2022-09-26T09:17:46.690Z,43.07
2022-09-26T09:20:53.383Z,43.36
2022-09-26T09:24:19.703Z,42.50
2022-09-26T09:30:17.487Z,42.71
2022-09-26T09:33:08.807Z,43.00
2022-09-26T09:36:09.181Z,43.53
2022-09-26T09:38:48.981Z,42.17
2022-09-26T09:41:47.736Z,40.44
2022-09-26T09:44:49.112Z,41.75
2022-09-26T09:47:19.609Z,41.86
2022-09-26T09:49:50.370Z,41.31
2022-09-26T09:52:49.441Z,40.58
2022-09-26T09:56:00.165Z,40.13
2022-09-26T09:59:03.812Z,39.10
2022-09-26T10:01:44.845Z,39.85
2022-09-26T10:04:44.145Z,39.36
2022-09-26T10:07:13.303Z,38.44
2022-09-26T10:09:44.207Z,39.24
2022-09-26T10:12:35.196Z,37.13
2022-09-26T10:15:27.611Z,38.09
2022-09-26T10:18:59.535Z,37.35
2022-09-26T10:21:48.878Z,36.47
2022-09-26T10:24:41.047Z,37.34
2022-09-26T10:27:38.802Z,36.78
2022-09-26T10:30:33.196Z,35.65
2022-09-26T10:33:05.773Z,36.09
2022-09-26T10:35:46.533Z,36.79
2022-09-26T10:38:23.808Z,36.21
2022-09-26T10:41:03.573Z,35.58
2022-09-26T10:43:38.114Z,33.57
2022-09-26T10:46:20.894Z,31.93
2022-09-26T10:49:14.059Z,32.32
2022-09-26T10:52:45.906Z,31.89
2022-09-26T10:55:29.866Z,32.00
2022-09-26T10:58:10.082Z,31.79
2022-09-26T11:00:50.523Z,28.67
2022-09-26T11:03:34.672Z,29.52
2022-09-26T11:06:45.211Z,29.94
2022-09-26T11:09:31.155Z,28.17
2022-09-26T11:12:29.676Z,27.76
2022-09-26T11:15:10.989Z,29.91
2022-09-26T11:17:51.502Z,29.62
2022-09-26T11:20:52.174Z,28.81
2022-09-26T11:23:46.288Z,29.08
2022-09-26T11:26:28.542Z,28.14
2022-09-26T11:29:27.921Z,26.10
2022-09-26T11:32:33.931Z,27.13
2022-09-26T11:35:22.225Z,26.31
2022-09-26T11:38:18.893Z,26.62
2022-09-26T11:41:07.340Z,26.92
2022-09-26T11:43:46.641Z,27.35
2022-09-26T11:46:40.111Z,27.10
2022-09-26T11:49:36.118Z,27.65
2022-09-26T11:53:10.327Z,28.49
2022-09-26T11:55:56.819Z,28.24
2022-09-26T11:58:36.837Z,28.84
2022-09-26T12:01:05.203Z,27.87
2022-09-26T12:03:43.658Z,26.69
2022-09-26T12:06:33.714Z,26.16
2022-09-26T12:09:10.345Z,26.71
2022-09-26T12:12:00.253Z,28.17
2022-09-26T12:14:40.265Z,28.37
2022-09-26T12:17:36.364Z,28.84
2022-09-26T12:20:57.018Z,30.11
2022-09-26T12:24:12.177Z,31.61
2022-09-26T12:27:07.629Z,31.87
2022-09-26T12:30:25.276Z,31.66
2022-09-26T12:33:21.027Z,32.41
2022-09-26T12:36:19.042Z,33.63
2022-09-26T12:39:24.920Z,32.95
2022-09-26T12:42:28.363Z,33.81
2022-09-26T12:45:45.224Z,33.93
2022-09-26T12:48:57.309Z,35.57
2022-09-26T12:51:52.347Z,34.93
2022-09-26T12:54:44.737Z,35.97
2022-09-26T12:57:43.949Z,36.33
2022-09-26T13:00:18.618Z,36.39
2022-09-26T13:03:35.578Z,36.47
2022-09-26T13:06:12.998Z,37.65
2022-09-26T13:09:16.065Z,36.30
2022-09-26T13:12:01.951Z,36.36
2022-09-26T13:15:32.643Z,37.27
2022-09-26T13:18:22.994Z,38.66
2022-09-26T13:21:00.358Z,38.94
2022-09-26T13:23:36.234Z,41.17
2022-09-26T13:26:26.193Z,40.27
2022-09-26T13:29:24.518Z,40.21
2022-09-26T13:32:06.831Z,39.44
2022-09-26T13:34:42.574Z,39.26
2022-09-26T13:37:36.564Z,38.76
2022-09-26T13:40:40.900Z,40.22
2022-09-26T13:43:36.519Z,41.92
2022-09-26T13:46:30.378Z,41.82
2022-09-26T13:49:07.741Z,41.29
2022-09-26T13:51:54.686Z,40.01
2022-09-26T13:54:57.562Z,39.82
2022-09-26T13:57:35.305Z,40.48
2022-09-26T14:00:23.521Z,41.18
2022-09-26T14:03:19.250Z,40.15
2022-09-26T14:05:51.775Z,40.42
2022-09-26T14:08:44.430Z,40.22
2022-09-26T14:11:19.146Z,40.69
2022-09-26T14:13:48.734Z,40.77
2022-09-26T14:16:34.362Z,41.55
2022-09-26T14:19:28.960Z,41.24
2022-09-26T14:22:23.660Z,42.83
2022-09-26T14:24:54.452Z,43.91
2022-09-26T14:27:39.484Z,43.98
2022-09-26T14:30:13.978Z,44.43
2022-09-26T14:32:47.032Z,45.45
2022-09-26T14:35:19.748Z,45.58
2022-09-26T14:37:51.351Z,44.74
2022-09-26T14:40:30.485Z,44.93
2022-09-26T14:43:14.425Z,45.31
2022-09-26T14:45:49.024Z,46.40
2022-09-26T14:48:32.439Z,48.01
2022-09-26T14:51:12.687Z,47.78
2022-09-26T14:54:27.393Z,46.58
2022-09-26T14:57:08.055Z,47.41
2022-09-26T14:59:36.401Z,48.41
2022-09-26T15:02:14.709Z,49.91
2022-09-26T15:04:47.352Z,50.21
2022-09-26T15:07:24.279Z,49.79
2022-09-26T15:10:13.834Z,49.57
2022-09-26T15:12:52.577Z,48.93
2022-09-26T15:15:55.029Z,49.38
2022-09-26T15:18:36.105Z,49.45
2022-09-26T15:21:27.116Z,50.56
2022-09-26T15:23:57.830Z,50.31
2022-09-26T15:26:37.161Z,50.31
2022-09-26T15:29:09.072Z,49.95
2022-09-26T15:31:47.456Z,50.52
2022-09-26T15:34:39.943Z,49.88
2022-09-26T15:37:32.364Z,50.04
2022-09-26T15:40:24.401Z,50.39
2022-09-26T15:43:22.531Z,48.97
2022-09-26T15:45:59.921Z,48.01
2022-09-26T15:48:32.613Z,47.99
2022-09-26T15:51:19.730Z,47.42
2022-09-26T15:54:22.961Z,47.40
2022-09-26T15:56:52.418Z,47.98
2022-09-26T15:59:30.400Z,48.28
2022-09-26T16:02:00.776Z,48.18
2022-09-26T16:04:32.955Z,48.37
2022-09-26T16:07:15.532Z,50.39
2022-09-26T16:09:47.059Z,48.95
2022-09-26T16:12:15.634Z,48.51
2022-09-26T16:15:18.832Z,48.10
2022-09-26T16:17:54.229Z,48.26
2022-09-26T16:20:27.415Z,49.22
2022-09-26T16:23:04.681Z,50.21
2022-09-26T16:25:40.610Z,49.32
2022-09-26T16:28:10.193Z,49.02
2022-09-26T16:31:10.668Z,48.76
2022-09-26T16:33:41.307Z,48.65
2022-09-26T16:36:22.338Z,48.72
2022-09-26T16:39:03.631Z,48.86
2022-09-26T16:42:03.377Z,51.18
2022-09-26T16:44:42.828Z,50.94
2022-09-26T16:47:50.482Z,50.29
2022-09-26T16:50:31.362Z,50.44
2022-09-26T16:53:06.886Z,50.70
2022-09-26T16:55:37.562Z,52.42
2022-09-26T16:58:06.450Z,51.21
2022-09-26T17:00:54.242Z,51.09
2022-09-26T17:03:30.765Z,53.24
2022-09-26T17:06:00.963Z,55.73
2022-09-26T17:08:29.835Z,55.67
2022-09-26T17:11:03.321Z,52.63
2022-09-26T17:13:35.615Z,51.91
2022-09-26T17:16:04.294Z,51.77
2022-09-26T17:18:35.165Z,51.65
2022-09-26T17:21:03.984Z,51.84
2022-09-26T17:23:41.393Z,53.53
2022-09-26T17:26:22.337Z,54.42
2022-09-26T17:28:53.414Z,54.08
2022-09-26T17:31:22.080Z,55.03
2022-09-26T17:33:53.400Z,55.91
2022-09-26T17:36:27.395Z,57.30
2022-09-26T17:38:59.613Z,56.38
2022-09-26T17:41:31.498Z,58.19
2022-09-26T17:44:01.261Z,58.65
2022-09-26T17:46:30.518Z,57.03
2022-09-26T17:48:59.513Z,58.12
2022-09-26T17:51:29.409Z,57.30
2022-09-26T17:53:57.886Z,57.48
2022-09-26T17:56:26.653Z,55.96
2022-09-26T17:58:57.282Z,54.58
2022-09-26T18:01:35.070Z,54.79
2022-09-26T18:04:07.707Z,55.38
2022-09-26T18:06:37.090Z,54.59
2022-09-26T18:09:10.159Z,53.88
2022-09-26T18:11:41.862Z,53.45
2022-09-26T18:14:17.947Z,54.42
2022-09-26T18:16:46.840Z,53.42
2022-09-26T18:19:15.694Z,52.76
2022-09-26T18:21:44.415Z,52.78
2022-09-26T18:24:19.781Z,53.04
2022-09-26T18:26:50.949Z,52.58
2022-09-26T18:29:35.541Z,52.50
2022-09-26T18:32:12.180Z,54.06
2022-09-26T18:34:40.707Z,54.29
2022-09-26T18:37:09.224Z,53.74
2022-09-26T18:39:37.752Z,54.33
2022-09-26T18:42:12.026Z,54.34
2022-09-26T18:44:40.916Z,53.38
2022-09-26T18:47:16.725Z,53.40
2022-09-26T18:49:46.764Z,53.65
2022-09-26T18:52:18.064Z,53.40
2022-09-26T18:55:07.013Z,53.81
2022-09-26T18:57:54.297Z,54.63
2022-09-26T19:00:22.824Z,55.36
2022-09-26T19:02:51.501Z,55.41
2022-09-26T19:05:20.679Z,54.30
2022-09-26T19:07:49.592Z,53.89
2022-09-26T19:10:22.476Z,53.91
2022-09-26T19:12:51.061Z,53.47
2022-09-26T19:15:19.668Z,53.66
2022-09-26T19:17:50.073Z,53.77
2022-09-26T19:20:18.528Z,55.47
2022-09-26T19:22:47.446Z,56.68
2022-09-26T19:25:16.036Z,57.63
2022-09-26T19:27:54.420Z,58.31
2022-09-26T19:30:23.454Z,57.99
2022-09-26T19:32:56.107Z,57.43
2022-09-26T19:35:25.107Z,56.10
2022-09-26T19:37:54.227Z,55.02
2022-09-26T19:40:24.885Z,54.78
2022-09-26T19:42:53.585Z,54.88
2022-09-26T19:45:22.305Z,55.08
2022-09-26T19:47:54.509Z,54.95
2022-09-26T19:50:27.067Z,54.68
2022-09-26T19:52:58.763Z,54.59
2022-09-26T19:55:29.706Z,54.64
2022-09-26T19:58:19.139Z,54.71
2022-09-26T20:00:54.846Z,55.33
2022-09-26T20:03:31.544Z,54.90
2022-09-26T20:06:00.054Z,54.88
2022-09-26T20:08:28.571Z,54.55
2022-09-26T20:10:59.307Z,54.91
2022-09-26T20:13:27.929Z,55.54
2022-09-26T20:15:57.049Z,56.40
2022-09-26T20:18:25.778Z,58.45
2022-09-26T20:20:56.902Z,56.83
2022-09-26T20:23:27.334Z,56.63
2022-09-26T20:25:56.765Z,56.13
2022-09-26T20:28:25.262Z,56.39
2022-09-26T20:30:55.509Z,58.37
2022-09-26T20:33:27.012Z,57.92
2022-09-26T20:36:04.620Z,60.52
2022-09-26T20:38:51.180Z,60.76
2022-09-26T20:41:28.934Z,61.28
2022-09-26T20:44:02.298Z,61.33
2022-09-26T20:46:36.134Z,61.65
2022-09-26T20:49:12.929Z,62.62
2022-09-26T20:51:41.888Z,62.24
2022-09-26T20:54:33.448Z,62.83
2022-09-26T20:57:01.911Z,61.72
2022-09-26T20:59:30.532Z,60.44
2022-09-26T21:02:00.264Z,60.49
2022-09-26T21:04:32.991Z,60.41
2022-09-26T21:07:01.439Z,60.43
2022-09-26T21:09:29.936Z,59.99
2022-09-26T21:11:58.457Z,60.44
2022-09-26T21:14:26.978Z,60.73
2022-09-26T21:16:55.679Z,61.88
2022-09-26T21:19:25.326Z,61.32
2022-09-26T21:22:02.857Z,61.13
2022-09-26T21:25:05.927Z,60.98
2022-09-26T21:27:34.750Z,61.09
2022-09-26T21:30:03.669Z,60.72
2022-09-26T21:32:33.013Z,60.50
2022-09-26T21:35:05.216Z,60.97
2022-09-26T21:37:34.655Z,61.90
2022-09-26T21:40:03.491Z,62.97
2022-09-26T21:42:32.501Z,63.98
2022-09-26T21:45:06.095Z,64.50
2022-09-26T21:47:36.873Z,64.02
2022-09-26T21:50:08.481Z,64.14
2022-09-26T21:52:46.171Z,64.83
2022-09-26T21:55:30.006Z,65.35
2022-09-26T21:58:05.377Z,64.91
2022-09-26T22:00:33.901Z,63.82
2022-09-26T22:03:02.423Z,65.61
2022-09-26T22:05:31.550Z,67.54
2022-09-26T22:08:00.371Z,69.53
2022-09-26T22:10:29.493Z,69.92
2022-09-26T22:12:58.621Z,69.23
2022-09-26T22:15:27.139Z,69.59
2022-09-26T22:17:55.863Z,68.55
2022-09-26T22:20:24.584Z,68.73
2022-09-26T22:22:53.202Z,69.77
2022-09-26T22:25:21.725Z,69.86
2022-09-26T22:27:50.248Z,69.04
2022-09-26T22:30:18.771Z,68.18
2022-09-26T22:32:47.293Z,67.53
2022-09-26T22:35:15.917Z,67.64
2022-09-26T22:37:44.488Z,67.79
2022-09-26T22:40:13.110Z,67.15
2022-09-26T22:42:41.678Z,67.25
2022-09-26T22:45:11.164Z,67.51
2022-09-26T22:47:39.630Z,68.90
2022-09-26T22:50:08.862Z,69.00
2022-09-26T22:52:37.576Z,69.03
2022-09-26T22:55:07.979Z,70.04
2022-09-26T22:57:36.533Z,70.05
2022-09-26T23:00:06.259Z,69.94
2022-09-26T23:02:35.413Z,70.93
2022-09-26T23:05:04.602Z,71.61
2022-09-26T23:07:33.318Z,72.25
2022-09-26T23:10:02.045Z,72.70
2022-09-26T23:12:32.463Z,73.54
2022-09-26T23:15:00.892Z,73.01
2022-09-26T23:17:29.417Z,73.75
2022-09-26T23:19:57.833Z,73.39
2022-09-26T23:22:26.359Z,73.37
2022-09-26T23:24:55.480Z,73.23
2022-09-26T23:27:25.304Z,73.96
2022-09-26T23:29:55.541Z,75.11
2022-09-26T23:32:24.256Z,75.46
2022-09-26T23:34:52.957Z,76.34
2022-09-26T23:37:21.512Z,76.41
2022-09-26T23:39:50.524Z,77.69
2022-09-26T23:42:19.010Z,78.49
2022-09-26T23:44:47.571Z,78.30
2022-09-26T23:47:16.088Z,77.61
2022-09-26T23:49:44.514Z,77.59
2022-09-26T23:52:13.233Z,77.43
2022-09-26T23:54:42.565Z,78.86
2022-09-26T23:57:11.184Z,81.48
2022-09-26T23:59:39.806Z,82.53
